sensor_id;sensor_type;location;lat;lon;timestamp;P1;durP1;ratioP1;P2;durP2;ratioP2
3953;SDS011;1991;48.682;9.030;2023-04-05T00:00:30;5.73;;;3.97;;
3953;SDS011;1991;48.682;9.030;2023-04-05T00:02:56;5.27;;;3.40;;
3953;SDS011;1991;48.682;9.030;2023-04-05T00:05:24;5.27;;;3.73;;
3953;SDS011;1991;48.682;9.030;2023-04-05T00:07:58;5.73;;;3.77;;
3953;SDS011;1991;48.682;9.030;2023-04-05T00:10:26;7.50;;;3.97;;
3953;SDS011;1991;48.682;9.030;2023-04-05T00:12:51;6.03;;;3.87;;
3953;SDS011;1991;48.682;9.030;2023-04-05T00:15:17;5.43;;;3.77;;
3953;SDS011;1991;48.682;9.030;2023-04-05T00:17:46;6.80;;;4.27;;
3953;SDS011;1991;48.682;9.030;2023-04-05T00:20:12;7.10;;;4.40;;
3953;SDS011;1991;48.682;9.030;2023-04-05T00:22:37;6.57;;;4.50;;
3953;SDS011;1991;48.682;9.030;2023-04-05T00:25:04;5.10;;;3.50;;
3953;SDS011;1991;48.682;9.030;2023-04-05T00:27:30;6.03;;;4.10;;
3953;SDS011;1991;48.682;9.030;2023-04-05T00:29:56;8.43;;;4.43;;
3953;SDS011;1991;48.682;9.030;2023-04-05T00:32:21;7.17;;;4.00;;
3953;SDS011;1991;48.682;9.030;2023-04-05T00:34:47;7.97;;;4.40;;
3953;SDS011;1991;48.682;9.030;2023-04-05T00:37:14;7.37;;;4.73;;
3953;SDS011;1991;48.682;9.030;2023-04-05T00:39:39;7.60;;;4.40;;
3953;SDS011;1991;48.682;9.030;2023-04-05T00:42:05;8.37;;;4.30;;
3953;SDS011;1991;48.682;9.030;2023-04-05T00:44:31;6.33;;;3.93;;
3953;SDS011;1991;48.682;9.030;2023-04-05T00:47:01;7.67;;;4.30;;
3953;SDS011;1991;48.682;9.030;2023-04-05T00:49:34;6.90;;;4.63;;
3953;SDS011;1991;48.682;9.030;2023-04-05T00:52:03;4.87;;;4.03;;
3953;SDS011;1991;48.682;9.030;2023-04-05T00:54:28;8.70;;;4.70;;
3953;SDS011;1991;48.682;9.030;2023-04-05T00:56:54;7.20;;;4.73;;
3953;SDS011;1991;48.682;9.030;2023-04-05T00:59:21;6.17;;;4.23;;
3953;SDS011;1991;48.682;9.030;2023-04-05T01:01:54;7.13;;;4.80;;
3953;SDS011;1991;48.682;9.030;2023-04-05T01:04:25;10.07;;;4.50;;
3953;SDS011;1991;48.682;9.030;2023-04-05T01:07:16;9.03;;;5.00;;
3953;SDS011;1991;48.682;9.030;2023-04-05T01:10:03;5.30;;;4.10;;
3953;SDS011;1991;48.682;9.030;2023-04-05T01:12:31;5.87;;;4.63;;
3953;SDS011;1991;48.682;9.030;2023-04-05T01:14:58;7.43;;;4.67;;
3953;SDS011;1991;48.682;9.030;2023-04-05T01:17:25;8.07;;;4.30;;
3953;SDS011;1991;48.682;9.030;2023-04-05T01:19:53;9.03;;;4.17;;
3953;SDS011;1991;48.682;9.030;2023-04-05T01:22:28;7.80;;;4.13;;
3953;SDS011;1991;48.682;9.030;2023-04-05T01:25:21;4.47;;;3.90;;
3953;SDS011;1991;48.682;9.030;2023-04-05T01:27:55;6.33;;;4.63;;
3953;SDS011;1991;48.682;9.030;2023-04-05T01:30:23;7.30;;;4.20;;
3953;SDS011;1991;48.682;9.030;2023-04-05T01:38:23;8.73;;;5.40;;
3953;SDS011;1991;48.682;9.030;2023-04-05T01:40:51;6.90;;;4.67;;
3953;SDS011;1991;48.682;9.030;2023-04-05T01:43:18;6.70;;;4.53;;
3953;SDS011;1991;48.682;9.030;2023-04-05T01:45:44;5.27;;;4.03;;
3953;SDS011;1991;48.682;9.030;2023-04-05T01:48:10;6.07;;;4.23;;
3953;SDS011;1991;48.682;9.030;2023-04-05T01:50:37;9.33;;;4.67;;
3953;SDS011;1991;48.682;9.030;2023-04-05T01:53:03;8.03;;;4.60;;
3953;SDS011;1991;48.682;9.030;2023-04-05T01:55:29;8.70;;;5.13;;
3953;SDS011;1991;48.682;9.030;2023-04-05T01:57:55;5.80;;;4.60;;
3953;SDS011;1991;48.682;9.030;2023-04-05T02:00:21;7.40;;;4.63;;
3953;SDS011;1991;48.682;9.030;2023-04-05T02:02:47;6.17;;;4.50;;
3953;SDS011;1991;48.682;9.030;2023-04-05T02:05:13;6.03;;;4.23;;
3953;SDS011;1991;48.682;9.030;2023-04-05T02:07:39;8.10;;;4.63;;
3953;SDS011;1991;48.682;9.030;2023-04-05T02:10:05;6.27;;;3.70;;
3953;SDS011;1991;48.682;9.030;2023-04-05T02:12:31;5.70;;;4.33;;
3953;SDS011;1991;48.682;9.030;2023-04-05T02:14:56;5.57;;;4.10;;
3953;SDS011;1991;48.682;9.030;2023-04-05T02:17:22;5.20;;;4.27;;
3953;SDS011;1991;48.682;9.030;2023-04-05T02:19:48;7.43;;;4.30;;
3953;SDS011;1991;48.682;9.030;2023-04-05T02:22:17;6.63;;;4.77;;
3953;SDS011;1991;48.682;9.030;2023-04-05T02:24:43;5.87;;;3.90;;
3953;SDS011;1991;48.682;9.030;2023-04-05T02:27:09;5.87;;;4.17;;
3953;SDS011;1991;48.682;9.030;2023-04-05T02:29:35;6.53;;;4.37;;
3953;SDS011;1991;48.682;9.030;2023-04-05T02:32:00;5.87;;;4.27;;
3953;SDS011;1991;48.682;9.030;2023-04-05T02:34:26;6.33;;;4.10;;
3953;SDS011;1991;48.682;9.030;2023-04-05T02:36:52;4.70;;;4.00;;
3953;SDS011;1991;48.682;9.030;2023-04-05T02:39:18;7.23;;;4.63;;
3953;SDS011;1991;48.682;9.030;2023-04-05T02:41:44;8.90;;;4.50;;
3953;SDS011;1991;48.682;9.030;2023-04-05T02:44:11;5.53;;;4.37;;
3953;SDS011;1991;48.682;9.030;2023-04-05T02:46:37;8.40;;;4.27;;
3953;SDS011;1991;48.682;9.030;2023-04-05T02:49:02;6.97;;;4.20;;
3953;SDS011;1991;48.682;9.030;2023-04-05T02:51:28;6.43;;;4.30;;
3953;SDS011;1991;48.682;9.030;2023-04-05T02:53:54;7.20;;;5.00;;
3953;SDS011;1991;48.682;9.030;2023-04-05T02:56:19;6.40;;;4.00;;
3953;SDS011;1991;48.682;9.030;2023-04-05T02:58:46;6.77;;;5.03;;
3953;SDS011;1991;48.682;9.030;2023-04-05T03:01:13;7.10;;;4.33;;
3953;SDS011;1991;48.682;9.030;2023-04-05T03:03:41;6.93;;;4.57;;
3953;SDS011;1991;48.682;9.030;2023-04-05T03:06:07;7.83;;;5.23;;
3953;SDS011;1991;48.682;9.030;2023-04-05T03:08:38;6.53;;;4.87;;
3953;SDS011;1991;48.682;9.030;2023-04-05T03:11:08;8.97;;;5.07;;
3953;SDS011;1991;48.682;9.030;2023-04-05T03:13:35;7.07;;;4.93;;
3953;SDS011;1991;48.682;9.030;2023-04-05T03:16:01;5.47;;;4.50;;
3953;SDS011;1991;48.682;9.030;2023-04-05T03:18:27;7.33;;;5.70;;
3953;SDS011;1991;48.682;9.030;2023-04-05T03:20:56;7.67;;;4.57;;
3953;SDS011;1991;48.682;9.030;2023-04-05T03:23:28;6.10;;;4.67;;
3953;SDS011;1991;48.682;9.030;2023-04-05T03:25:57;7.70;;;5.20;;
3953;SDS011;1991;48.682;9.030;2023-04-05T03:28:23;7.60;;;4.80;;
3953;SDS011;1991;48.682;9.030;2023-04-05T03:30:50;6.67;;;4.63;;
3953;SDS011;1991;48.682;9.030;2023-04-05T03:33:16;6.70;;;4.80;;
3953;SDS011;1991;48.682;9.030;2023-04-05T03:35:42;7.83;;;4.97;;
3953;SDS011;1991;48.682;9.030;2023-04-05T03:38:08;12.50;;;5.83;;
3953;SDS011;1991;48.682;9.030;2023-04-05T03:40:33;9.23;;;5.57;;
3953;SDS011;1991;48.682;9.030;2023-04-05T03:42:59;9.93;;;5.30;;
3953;SDS011;1991;48.682;9.030;2023-04-05T03:45:25;10.83;;;6.80;;
3953;SDS011;1991;48.682;9.030;2023-04-05T03:47:51;9.97;;;4.57;;
3953;SDS011;1991;48.682;9.030;2023-04-05T03:50:17;8.63;;;5.13;;
3953;SDS011;1991;48.682;9.030;2023-04-05T03:52:43;9.70;;;5.33;;
3953;SDS011;1991;48.682;9.030;2023-04-05T03:55:10;8.23;;;5.40;;
3953;SDS011;1991;48.682;9.030;2023-04-05T03:57:37;8.03;;;5.53;;
3953;SDS011;1991;48.682;9.030;2023-04-05T04:00:03;9.80;;;5.27;;
3953;SDS011;1991;48.682;9.030;2023-04-05T04:02:39;7.90;;;5.83;;
3953;SDS011;1991;48.682;9.030;2023-04-05T04:05:08;10.70;;;5.80;;
3953;SDS011;1991;48.682;9.030;2023-04-05T04:07:35;9.30;;;5.57;;
3953;SDS011;1991;48.682;9.030;2023-04-05T04:10:01;11.27;;;5.80;;
3953;SDS011;1991;48.682;9.030;2023-04-05T04:12:27;7.43;;;5.10;;
3953;SDS011;1991;48.682;9.030;2023-04-05T04:14:53;7.73;;;5.23;;
3953;SDS011;1991;48.682;9.030;2023-04-05T04:17:25;9.53;;;5.17;;
3953;SDS011;1991;48.682;9.030;2023-04-05T04:19:52;7.00;;;5.10;;
3953;SDS011;1991;48.682;9.030;2023-04-05T04:22:18;7.47;;;5.40;;
3953;SDS011;1991;48.682;9.030;2023-04-05T04:24:44;9.17;;;5.57;;
3953;SDS011;1991;48.682;9.030;2023-04-05T04:27:14;8.50;;;4.93;;
3953;SDS011;1991;48.682;9.030;2023-04-05T04:29:42;9.23;;;5.30;;
3953;SDS011;1991;48.682;9.030;2023-04-05T04:32:14;9.87;;;5.70;;
3953;SDS011;1991;48.682;9.030;2023-04-05T04:34:43;10.13;;;5.57;;
3953;SDS011;1991;48.682;9.030;2023-04-05T04:37:12;7.07;;;4.83;;
3953;SDS011;1991;48.682;9.030;2023-04-05T04:39:43;11.90;;;5.83;;
3953;SDS011;1991;48.682;9.030;2023-04-05T04:42:10;12.03;;;5.43;;
3953;SDS011;1991;48.682;9.030;2023-04-05T04:44:36;9.23;;;5.50;;
3953;SDS011;1991;48.682;9.030;2023-04-05T04:47:01;7.03;;;5.53;;
3953;SDS011;1991;48.682;9.030;2023-04-05T04:49:27;8.50;;;5.97;;
3953;SDS011;1991;48.682;9.030;2023-04-05T04:51:53;9.57;;;5.77;;
3953;SDS011;1991;48.682;9.030;2023-04-05T04:54:19;8.37;;;5.37;;
3953;SDS011;1991;48.682;9.030;2023-04-05T04:56:44;7.67;;;5.73;;
3953;SDS011;1991;48.682;9.030;2023-04-05T04:59:10;9.03;;;6.00;;
3953;SDS011;1991;48.682;9.030;2023-04-05T05:01:36;10.23;;;6.50;;
3953;SDS011;1991;48.682;9.030;2023-04-05T05:04:02;8.90;;;5.73;;
3953;SDS011;1991;48.682;9.030;2023-04-05T05:06:28;9.27;;;5.57;;
3953;SDS011;1991;48.682;9.030;2023-04-05T05:08:54;8.73;;;6.23;;
3953;SDS011;1991;48.682;9.030;2023-04-05T05:11:20;10.53;;;6.30;;
3953;SDS011;1991;48.682;9.030;2023-04-05T05:13:46;10.33;;;5.90;;
3953;SDS011;1991;48.682;9.030;2023-04-05T05:16:11;8.07;;;6.07;;
3953;SDS011;1991;48.682;9.030;2023-04-05T05:18:37;9.20;;;6.37;;
3953;SDS011;1991;48.682;9.030;2023-04-05T05:21:05;9.97;;;6.53;;
3953;SDS011;1991;48.682;9.030;2023-04-05T05:23:31;12.60;;;7.03;;
3953;SDS011;1991;48.682;9.030;2023-04-05T05:25:57;14.27;;;7.27;;
3953;SDS011;1991;48.682;9.030;2023-04-05T05:28:24;8.13;;;5.87;;
3953;SDS011;1991;48.682;9.030;2023-04-05T05:30:51;13.33;;;7.27;;
3953;SDS011;1991;48.682;9.030;2023-04-05T05:33:16;7.67;;;5.60;;
3953;SDS011;1991;48.682;9.030;2023-04-05T05:35:42;11.10;;;5.97;;
3953;SDS011;1991;48.682;9.030;2023-04-05T05:38:08;10.93;;;6.20;;
3953;SDS011;1991;48.682;9.030;2023-04-05T05:40:33;12.07;;;6.37;;
3953;SDS011;1991;48.682;9.030;2023-04-05T05:42:59;12.67;;;6.93;;
3953;SDS011;1991;48.682;9.030;2023-04-05T05:45:24;12.60;;;7.30;;
3953;SDS011;1991;48.682;9.030;2023-04-05T05:47:51;10.30;;;7.07;;
3953;SDS011;1991;48.682;9.030;2023-04-05T05:50:16;10.47;;;6.37;;
3953;SDS011;1991;48.682;9.030;2023-04-05T05:52:44;12.73;;;7.10;;
3953;SDS011;1991;48.682;9.030;2023-04-05T05:55:10;12.53;;;7.13;;
3953;SDS011;1991;48.682;9.030;2023-04-05T05:57:35;12.13;;;7.20;;
3953;SDS011;1991;48.682;9.030;2023-04-05T06:00:02;9.80;;;6.73;;
3953;SDS011;1991;48.682;9.030;2023-04-05T06:02:33;9.13;;;7.17;;
3953;SDS011;1991;48.682;9.030;2023-04-05T06:04:59;10.33;;;6.77;;
3953;SDS011;1991;48.682;9.030;2023-04-05T06:07:26;8.90;;;7.27;;
3953;SDS011;1991;48.682;9.030;2023-04-05T06:09:52;10.37;;;6.70;;
3953;SDS011;1991;48.682;9.030;2023-04-05T06:12:21;9.83;;;6.27;;
3953;SDS011;1991;48.682;9.030;2023-04-05T06:14:46;7.93;;;5.83;;
3953;SDS011;1991;48.682;9.030;2023-04-05T06:17:12;8.63;;;6.37;;
3953;SDS011;1991;48.682;9.030;2023-04-05T06:19:37;9.57;;;6.17;;
3953;SDS011;1991;48.682;9.030;2023-04-05T06:22:03;11.03;;;6.43;;
3953;SDS011;1991;48.682;9.030;2023-04-05T06:24:29;7.67;;;6.27;;
3953;SDS011;1991;48.682;9.030;2023-04-05T06:26:56;11.83;;;6.53;;
3953;SDS011;1991;48.682;9.030;2023-04-05T06:29:22;11.57;;;6.73;;
3953;SDS011;1991;48.682;9.030;2023-04-05T06:31:48;11.13;;;6.53;;
3953;SDS011;1991;48.682;9.030;2023-04-05T06:34:13;13.47;;;7.10;;
3953;SDS011;1991;48.682;9.030;2023-04-05T06:36:39;10.77;;;6.43;;
3953;SDS011;1991;48.682;9.030;2023-04-05T06:39:05;11.83;;;7.30;;
3953;SDS011;1991;48.682;9.030;2023-04-05T06:41:30;9.27;;;6.63;;
3953;SDS011;1991;48.682;9.030;2023-04-05T06:43:56;10.60;;;6.73;;
3953;SDS011;1991;48.682;9.030;2023-04-05T06:46:22;8.93;;;6.67;;
3953;SDS011;1991;48.682;9.030;2023-04-05T06:48:47;17.53;;;7.53;;
3953;SDS011;1991;48.682;9.030;2023-04-05T06:51:14;9.03;;;6.00;;
3953;SDS011;1991;48.682;9.030;2023-04-05T06:53:40;12.40;;;6.70;;
3953;SDS011;1991;48.682;9.030;2023-04-05T06:56:05;10.87;;;6.77;;
3953;SDS011;1991;48.682;9.030;2023-04-05T06:58:31;9.63;;;6.57;;
3953;SDS011;1991;48.682;9.030;2023-04-05T07:00:58;9.63;;;6.60;;
3953;SDS011;1991;48.682;9.030;2023-04-05T07:03:25;8.80;;;6.30;;
3953;SDS011;1991;48.682;9.030;2023-04-05T07:05:51;8.17;;;5.87;;
3953;SDS011;1991;48.682;9.030;2023-04-05T07:08:18;8.17;;;5.60;;
3953;SDS011;1991;48.682;9.030;2023-04-05T07:10:45;8.43;;;6.23;;
3953;SDS011;1991;48.682;9.030;2023-04-05T07:13:11;6.90;;;5.37;;
3953;SDS011;1991;48.682;9.030;2023-04-05T07:15:36;9.37;;;5.23;;
3953;SDS011;1991;48.682;9.030;2023-04-05T07:18:02;6.47;;;4.00;;
3953;SDS011;1991;48.682;9.030;2023-04-05T07:20:28;9.03;;;4.63;;
3953;SDS011;1991;48.682;9.030;2023-04-05T07:22:53;6.27;;;4.47;;
3953;SDS011;1991;48.682;9.030;2023-04-05T07:25:19;7.17;;;4.83;;
3953;SDS011;1991;48.682;9.030;2023-04-05T07:27:45;6.27;;;4.17;;
3953;SDS011;1991;48.682;9.030;2023-04-05T07:30:11;6.00;;;4.57;;
3953;SDS011;1991;48.682;9.030;2023-04-05T07:32:37;7.70;;;4.40;;
3953;SDS011;1991;48.682;9.030;2023-04-05T07:35:02;5.80;;;4.73;;
3953;SDS011;1991;48.682;9.030;2023-04-05T07:37:28;9.00;;;4.70;;
3953;SDS011;1991;48.682;9.030;2023-04-05T07:39:54;8.80;;;4.30;;
3953;SDS011;1991;48.682;9.030;2023-04-05T07:42:20;5.90;;;4.37;;
3953;SDS011;1991;48.682;9.030;2023-04-05T07:44:46;6.57;;;4.33;;
3953;SDS011;1991;48.682;9.030;2023-04-05T07:47:11;6.37;;;4.50;;
3953;SDS011;1991;48.682;9.030;2023-04-05T07:49:37;8.37;;;4.60;;
3953;SDS011;1991;48.682;9.030;2023-04-05T07:52:02;6.37;;;4.30;;
3953;SDS011;1991;48.682;9.030;2023-04-05T07:54:30;7.03;;;4.87;;
3953;SDS011;1991;48.682;9.030;2023-04-05T07:56:57;6.83;;;4.63;;
3953;SDS011;1991;48.682;9.030;2023-04-05T07:59:23;7.40;;;3.83;;
3953;SDS011;1991;48.682;9.030;2023-04-05T08:01:49;6.83;;;4.20;;
3953;SDS011;1991;48.682;9.030;2023-04-05T08:04:15;4.67;;;3.60;;
3953;SDS011;1991;48.682;9.030;2023-04-05T08:06:40;7.87;;;4.57;;
3953;SDS011;1991;48.682;9.030;2023-04-05T08:09:06;6.27;;;3.47;;
3953;SDS011;1991;48.682;9.030;2023-04-05T08:11:33;8.80;;;4.47;;
3953;SDS011;1991;48.682;9.030;2023-04-05T08:13:59;5.60;;;4.37;;
3953;SDS011;1991;48.682;9.030;2023-04-05T08:16:25;9.43;;;4.53;;
3953;SDS011;1991;48.682;9.030;2023-04-05T08:18:50;6.20;;;3.93;;
3953;SDS011;1991;48.682;9.030;2023-04-05T08:21:16;5.37;;;3.67;;
3953;SDS011;1991;48.682;9.030;2023-04-05T08:23:41;5.80;;;4.30;;
3953;SDS011;1991;48.682;9.030;2023-04-05T08:26:07;4.97;;;4.00;;
3953;SDS011;1991;48.682;9.030;2023-04-05T08:28:33;9.30;;;4.40;;
3953;SDS011;1991;48.682;9.030;2023-04-05T08:30:58;6.97;;;4.50;;
3953;SDS011;1991;48.682;9.030;2023-04-05T08:33:24;7.93;;;4.30;;
3953;SDS011;1991;48.682;9.030;2023-04-05T08:35:52;8.13;;;4.50;;
3953;SDS011;1991;48.682;9.030;2023-04-05T08:38:17;6.33;;;4.13;;
3953;SDS011;1991;48.682;9.030;2023-04-05T08:40:44;9.13;;;4.20;;
3953;SDS011;1991;48.682;9.030;2023-04-05T08:43:17;7.53;;;3.73;;
3953;SDS011;1991;48.682;9.030;2023-04-05T08:45:56;7.77;;;3.67;;
3953;SDS011;1991;48.682;9.030;2023-04-05T08:48:24;7.13;;;3.50;;
3953;SDS011;1991;48.682;9.030;2023-04-05T08:50:53;3.87;;;3.20;;
3953;SDS011;1991;48.682;9.030;2023-04-05T08:53:19;6.17;;;3.70;;
3953;SDS011;1991;48.682;9.030;2023-04-05T08:55:49;4.87;;;3.30;;
3953;SDS011;1991;48.682;9.030;2023-04-05T08:58:19;3.57;;;2.87;;
3953;SDS011;1991;48.682;9.030;2023-04-05T09:00:46;5.10;;;3.53;;
3953;SDS011;1991;48.682;9.030;2023-04-05T09:03:14;5.40;;;3.73;;
3953;SDS011;1991;48.682;9.030;2023-04-05T09:05:45;4.43;;;3.57;;
3953;SDS011;1991;48.682;9.030;2023-04-05T09:08:12;4.70;;;3.10;;
3953;SDS011;1991;48.682;9.030;2023-04-05T09:10:38;4.30;;;2.93;;
3953;SDS011;1991;48.682;9.030;2023-04-05T09:13:04;4.47;;;3.40;;
3953;SDS011;1991;48.682;9.030;2023-04-05T09:15:30;4.33;;;2.97;;
3953;SDS011;1991;48.682;9.030;2023-04-05T09:17:56;5.20;;;3.40;;
3953;SDS011;1991;48.682;9.030;2023-04-05T09:20:22;6.40;;;3.30;;
3953;SDS011;1991;48.682;9.030;2023-04-05T09:22:48;6.07;;;3.10;;
3953;SDS011;1991;48.682;9.030;2023-04-05T09:28:03;4.80;;;3.40;;
3953;SDS011;1991;48.682;9.030;2023-04-05T09:30:32;4.73;;;3.53;;
3953;SDS011;1991;48.682;9.030;2023-04-05T09:33:00;4.63;;;3.00;;
3953;SDS011;1991;48.682;9.030;2023-04-05T09:35:26;5.10;;;3.27;;
3953;SDS011;1991;48.682;9.030;2023-04-05T09:37:57;4.43;;;3.53;;
3953;SDS011;1991;48.682;9.030;2023-04-05T09:40:46;5.33;;;3.10;;
3953;SDS011;1991;48.682;9.030;2023-04-05T09:43:12;4.05;;;2.97;;
3953;SDS011;1991;48.682;9.030;2023-04-05T09:45:58;4.78;;;3.00;;
3953;SDS011;1991;48.682;9.030;2023-04-05T09:48:41;5.10;;;3.25;;
3953;SDS011;1991;48.682;9.030;2023-04-05T09:51:10;5.03;;;3.80;;
3953;SDS011;1991;48.682;9.030;2023-04-05T09:53:36;5.47;;;3.38;;
3953;SDS011;1991;48.682;9.030;2023-04-05T09:56:08;5.40;;;4.00;;
3953;SDS011;1991;48.682;9.030;2023-04-05T09:58:35;4.20;;;3.72;;
3953;SDS011;1991;48.682;9.030;2023-04-05T10:01:01;5.60;;;3.20;;
3953;SDS011;1991;48.682;9.030;2023-04-05T10:03:28;5.03;;;3.80;;
3953;SDS011;1991;48.682;9.030;2023-04-05T10:05:54;3.88;;;3.08;;
3953;SDS011;1991;48.682;9.030;2023-04-05T10:08:20;6.20;;;3.75;;
3953;SDS011;1991;48.682;9.030;2023-04-05T10:10:47;5.65;;;3.55;;
3953;SDS011;1991;48.682;9.030;2023-04-05T10:13:16;5.85;;;3.70;;
3953;SDS011;1991;48.682;9.030;2023-04-05T10:15:43;6.18;;;3.35;;
3953;SDS011;1991;48.682;9.030;2023-04-05T10:18:17;4.10;;;3.13;;
3953;SDS011;1991;48.682;9.030;2023-04-05T10:20:48;4.85;;;3.33;;
3953;SDS011;1991;48.682;9.030;2023-04-05T10:28:17;4.07;;;3.67;;
3953;SDS011;1991;48.682;9.030;2023-04-05T10:33:34;4.70;;;3.58;;
3953;SDS011;1991;48.682;9.030;2023-04-05T10:38:38;5.55;;;3.50;;
3953;SDS011;1991;48.682;9.030;2023-04-05T10:41:11;3.70;;;3.22;;
3953;SDS011;1991;48.682;9.030;2023-04-05T10:43:40;4.45;;;3.75;;
3953;SDS011;1991;48.682;9.030;2023-04-05T10:46:07;5.35;;;3.45;;
3953;SDS011;1991;48.682;9.030;2023-04-05T10:48:35;4.50;;;3.30;;
3953;SDS011;1991;48.682;9.030;2023-04-05T10:51:10;3.85;;;3.38;;
3953;SDS011;1991;48.682;9.030;2023-04-05T10:53:37;4.63;;;3.35;;
3953;SDS011;1991;48.682;9.030;2023-04-05T10:56:03;4.00;;;3.50;;
3953;SDS011;1991;48.682;9.030;2023-04-05T10:58:29;3.65;;;3.33;;
3953;SDS011;1991;48.682;9.030;2023-04-05T11:00:56;3.70;;;3.20;;
3953;SDS011;1991;48.682;9.030;2023-04-05T11:03:57;3.65;;;3.35;;
3953;SDS011;1991;48.682;9.030;2023-04-05T11:08:54;4.18;;;3.75;;
3953;SDS011;1991;48.682;9.030;2023-04-05T11:11:37;3.85;;;3.25;;
3953;SDS011;1991;48.682;9.030;2023-04-05T11:16:50;3.88;;;3.53;;
3953;SDS011;1991;48.682;9.030;2023-04-05T11:19:19;3.90;;;3.42;;
3953;SDS011;1991;48.682;9.030;2023-04-05T11:21:45;4.15;;;3.75;;
3953;SDS011;1991;48.682;9.030;2023-04-05T11:24:11;4.43;;;3.42;;
3953;SDS011;1991;48.682;9.030;2023-04-05T11:29:08;6.38;;;4.28;;
3953;SDS011;1991;48.682;9.030;2023-04-05T11:31:35;5.78;;;3.80;;
3953;SDS011;1991;48.682;9.030;2023-04-05T11:34:04;7.45;;;4.38;;
3953;SDS011;1991;48.682;9.030;2023-04-05T11:41:47;3.80;;;3.40;;
3953;SDS011;1991;48.682;9.030;2023-04-05T11:44:25;4.13;;;3.83;;
3953;SDS011;1991;48.682;9.030;2023-04-05T11:46:52;4.00;;;3.70;;
3953;SDS011;1991;48.682;9.030;2023-04-05T11:49:21;4.50;;;3.75;;
3953;SDS011;1991;48.682;9.030;2023-04-05T11:51:51;6.05;;;3.80;;
3953;SDS011;1991;48.682;9.030;2023-04-05T11:54:27;5.18;;;3.78;;
3953;SDS011;1991;48.682;9.030;2023-04-05T11:56:56;4.28;;;3.70;;
3953;SDS011;1991;48.682;9.030;2023-04-05T11:59:28;3.85;;;3.42;;
3953;SDS011;1991;48.682;9.030;2023-04-05T12:01:58;3.95;;;3.63;;
3953;SDS011;1991;48.682;9.030;2023-04-05T12:04:24;4.72;;;4.15;;
3953;SDS011;1991;48.682;9.030;2023-04-05T12:07:06;5.45;;;4.03;;
3953;SDS011;1991;48.682;9.030;2023-04-05T12:09:56;7.63;;;4.40;;
3953;SDS011;1991;48.682;9.030;2023-04-05T12:12:22;5.18;;;3.83;;
3953;SDS011;1991;48.682;9.030;2023-04-05T12:14:48;4.60;;;3.67;;
3953;SDS011;1991;48.682;9.030;2023-04-05T12:17:13;4.93;;;3.60;;
3953;SDS011;1991;48.682;9.030;2023-04-05T12:19:39;4.00;;;3.60;;
3953;SDS011;1991;48.682;9.030;2023-04-05T12:22:05;6.95;;;4.40;;
3953;SDS011;1991;48.682;9.030;2023-04-05T12:24:31;6.53;;;4.03;;
3953;SDS011;1991;48.682;9.030;2023-04-05T12:26:56;4.05;;;3.67;;
3953;SDS011;1991;48.682;9.030;2023-04-05T12:29:22;4.40;;;3.97;;
3953;SDS011;1991;48.682;9.030;2023-04-05T12:31:49;4.38;;;3.95;;
3953;SDS011;1991;48.682;9.030;2023-04-05T12:34:14;4.40;;;4.00;;
3953;SDS011;1991;48.682;9.030;2023-04-05T12:36:48;5.57;;;4.18;;
3953;SDS011;1991;48.682;9.030;2023-04-05T12:39:14;4.28;;;3.88;;
3953;SDS011;1991;48.682;9.030;2023-04-05T12:41:41;5.90;;;3.92;;
3953;SDS011;1991;48.682;9.030;2023-04-05T12:47:01;4.85;;;3.95;;
3953;SDS011;1991;48.682;9.030;2023-04-05T12:49:27;4.55;;;4.00;;
3953;SDS011;1991;48.682;9.030;2023-04-05T12:51:53;4.32;;;3.92;;
3953;SDS011;1991;48.682;9.030;2023-04-05T12:54:22;4.47;;;3.63;;
3953;SDS011;1991;48.682;9.030;2023-04-05T12:56:51;4.03;;;3.60;;
3953;SDS011;1991;48.682;9.030;2023-04-05T12:59:18;4.72;;;3.70;;
3953;SDS011;1991;48.682;9.030;2023-04-05T13:01:47;4.05;;;3.60;;
3953;SDS011;1991;48.682;9.030;2023-04-05T13:04:13;4.40;;;4.10;;
3953;SDS011;1991;48.682;9.030;2023-04-05T13:06:38;4.55;;;4.15;;
3953;SDS011;1991;48.682;9.030;2023-04-05T13:09:04;5.13;;;4.15;;
3953;SDS011;1991;48.682;9.030;2023-04-05T13:11:29;3.83;;;3.53;;
3953;SDS011;1991;48.682;9.030;2023-04-05T13:13:56;5.32;;;3.97;;
3953;SDS011;1991;48.682;9.030;2023-04-05T13:16:22;5.50;;;4.55;;
3953;SDS011;1991;48.682;9.030;2023-04-05T13:18:47;4.43;;;4.05;;
3953;SDS011;1991;48.682;9.030;2023-04-05T13:21:13;4.68;;;4.15;;
3953;SDS011;1991;48.682;9.030;2023-04-05T13:23:39;4.60;;;4.18;;
3953;SDS011;1991;48.682;9.030;2023-04-05T13:26:05;5.88;;;4.00;;
3953;SDS011;1991;48.682;9.030;2023-04-05T13:28:31;4.30;;;3.88;;
3953;SDS011;1991;48.682;9.030;2023-04-05T13:30:58;4.68;;;4.28;;
3953;SDS011;1991;48.682;9.030;2023-04-05T13:33:24;4.72;;;3.90;;
3953;SDS011;1991;48.682;9.030;2023-04-05T13:35:49;5.30;;;3.67;;
3953;SDS011;1991;48.682;9.030;2023-04-05T13:38:15;5.40;;;3.70;;
3953;SDS011;1991;48.682;9.030;2023-04-05T13:40:40;4.53;;;4.13;;
3953;SDS011;1991;48.682;9.030;2023-04-05T13:43:06;4.40;;;4.00;;
3953;SDS011;1991;48.682;9.030;2023-04-05T13:45:32;5.50;;;3.90;;
3953;SDS011;1991;48.682;9.030;2023-04-05T13:47:58;4.80;;;4.40;;
3953;SDS011;1991;48.682;9.030;2023-04-05T13:50:24;5.05;;;4.07;;
3953;SDS011;1991;48.682;9.030;2023-04-05T13:52:50;5.18;;;4.15;;
3953;SDS011;1991;48.682;9.030;2023-04-05T13:55:16;4.35;;;3.95;;
3953;SDS011;1991;48.682;9.030;2023-04-05T13:57:42;5.90;;;4.03;;
3953;SDS011;1991;48.682;9.030;2023-04-05T14:00:08;5.15;;;4.30;;
3953;SDS011;1991;48.682;9.030;2023-04-05T14:02:34;5.65;;;4.13;;
3953;SDS011;1991;48.682;9.030;2023-04-05T14:05:00;5.88;;;4.40;;
3953;SDS011;1991;48.682;9.030;2023-04-05T14:07:25;5.78;;;4.63;;
3953;SDS011;1991;48.682;9.030;2023-04-05T14:09:51;5.03;;;4.00;;
3953;SDS011;1991;48.682;9.030;2023-04-05T14:12:17;4.57;;;4.13;;
3953;SDS011;1991;48.682;9.030;2023-04-05T14:14:42;4.80;;;4.40;;
3953;SDS011;1991;48.682;9.030;2023-04-05T14:17:08;7.07;;;4.45;;
3953;SDS011;1991;48.682;9.030;2023-04-05T14:19:36;5.88;;;4.03;;
3953;SDS011;1991;48.682;9.030;2023-04-05T14:22:02;6.70;;;4.13;;
3953;SDS011;1991;48.682;9.030;2023-04-05T14:24:28;6.45;;;4.50;;
3953;SDS011;1991;48.682;9.030;2023-04-05T14:26:53;4.75;;;4.28;;
3953;SDS011;1991;48.682;9.030;2023-04-05T14:29:20;5.90;;;4.40;;
3953;SDS011;1991;48.682;9.030;2023-04-05T14:31:46;6.40;;;4.40;;
3953;SDS011;1991;48.682;9.030;2023-04-05T14:34:12;4.65;;;4.22;;
3953;SDS011;1991;48.682;9.030;2023-04-05T14:36:37;4.38;;;3.95;;
3953;SDS011;1991;48.682;9.030;2023-04-05T14:39:03;6.95;;;4.57;;
3953;SDS011;1991;48.682;9.030;2023-04-05T14:41:29;5.78;;;5.05;;
3953;SDS011;1991;48.682;9.030;2023-04-05T14:43:55;6.50;;;4.63;;
3953;SDS011;1991;48.682;9.030;2023-04-05T14:46:20;5.50;;;4.85;;
3953;SDS011;1991;48.682;9.030;2023-04-05T14:48:46;4.93;;;4.53;;
3953;SDS011;1991;48.682;9.030;2023-04-05T14:51:12;6.15;;;4.15;;
3953;SDS011;1991;48.682;9.030;2023-04-05T14:53:38;5.22;;;4.68;;
3953;SDS011;1991;48.682;9.030;2023-04-05T14:56:03;5.35;;;3.97;;
3953;SDS011;1991;48.682;9.030;2023-04-05T14:58:29;7.03;;;4.30;;
3953;SDS011;1991;48.682;9.030;2023-04-05T15:00:57;4.30;;;3.90;;
3953;SDS011;1991;48.682;9.030;2023-04-05T15:03:23;5.15;;;4.15;;
3953;SDS011;1991;48.682;9.030;2023-04-05T15:05:49;5.45;;;4.22;;
3953;SDS011;1991;48.682;9.030;2023-04-05T15:08:15;5.50;;;4.32;;
3953;SDS011;1991;48.682;9.030;2023-04-05T15:10:40;4.72;;;4.10;;
3953;SDS011;1991;48.682;9.030;2023-04-05T15:13:07;6.63;;;4.93;;
3953;SDS011;1991;48.682;9.030;2023-04-05T15:15:33;4.65;;;4.22;;
3953;SDS011;1991;48.682;9.030;2023-04-05T15:17:58;5.82;;;4.38;;
3953;SDS011;1991;48.682;9.030;2023-04-05T15:20:24;7.85;;;5.05;;
3953;SDS011;1991;48.682;9.030;2023-04-05T15:22:50;5.63;;;4.30;;
3953;SDS011;1991;48.682;9.030;2023-04-05T15:25:16;6.00;;;4.40;;
3953;SDS011;1991;48.682;9.030;2023-04-05T15:27:42;4.78;;;3.83;;
3953;SDS011;1991;48.682;9.030;2023-04-05T15:30:07;5.30;;;4.53;;
3953;SDS011;1991;48.682;9.030;2023-04-05T15:32:33;4.97;;;4.00;;
3953;SDS011;1991;48.682;9.030;2023-04-05T15:34:59;5.47;;;4.10;;
3953;SDS011;1991;48.682;9.030;2023-04-05T15:37:25;4.80;;;4.30;;
3953;SDS011;1991;48.682;9.030;2023-04-05T15:39:52;5.80;;;4.63;;
3953;SDS011;1991;48.682;9.030;2023-04-05T15:42:17;5.32;;;4.03;;
3953;SDS011;1991;48.682;9.030;2023-04-05T15:44:45;8.57;;;4.30;;
3953;SDS011;1991;48.682;9.030;2023-04-05T15:47:15;5.07;;;4.20;;
3953;SDS011;1991;48.682;9.030;2023-04-05T15:49:41;4.80;;;4.40;;